createdAt,value
2023-02-19T00:00:44.388Z,9.6
2023-02-19T00:02:00.697Z,9.5
2023-02-19T00:03:16.989Z,9.5
2023-02-19T00:04:33.280Z,9.5
2023-02-19T00:05:49.579Z,9.5
2023-02-19T00:07:05.867Z,9.5
2023-02-19T00:08:22.163Z,9.5
2023-02-19T00:09:38.450Z,9.5
2023-02-19T00:10:53.770Z,9.5
2023-02-19T00:12:10.061Z,9.5
2023-02-19T00:13:26.345Z,9.5
2023-02-19T00:14:42.644Z,9.5
2023-02-19T00:15:58.946Z,9.5
2023-02-19T00:17:15.241Z,9.5
2023-02-19T00:18:31.533Z,9.5
2023-02-19T00:19:47.829Z,9.5
2023-02-19T00:21:04.114Z,9.5
2023-02-19T00:22:20.405Z,9.5
2023-02-19T00:23:36.699Z,9.5
2023-02-19T00:24:53.003Z,9.5
2023-02-19T00:26:09.307Z,9.5
2023-02-19T00:27:24.603Z,9.5
2023-02-19T00:28:40.908Z,9.5
2023-02-19T00:29:57.186Z,9.5
2023-02-19T00:31:13.479Z,9.5
2023-02-19T00:32:29.779Z,9.5
2023-02-19T00:33:46.077Z,9.5
2023-02-19T00:35:02.364Z,9.5
2023-02-19T00:36:18.656Z,9.5
2023-02-19T00:37:34.947Z,9.5
2023-02-19T00:38:51.243Z,9.5
2023-02-19T00:40:07.550Z,9.5
2023-02-19T00:41:23.848Z,9.6
2023-02-19T00:42:40.135Z,9.6
2023-02-19T00:43:55.437Z,9.6
2023-02-19T00:45:11.730Z,9.6
2023-02-19T00:46:28.030Z,9.6
2023-02-19T00:47:44.333Z,9.6
2023-02-19T00:49:00.618Z,9.6
2023-02-19T00:50:16.914Z,9.6
2023-02-19T00:51:33.218Z,9.6
2023-02-19T00:52:49.491Z,9.5
2023-02-19T00:54:05.797Z,9.4
2023-02-19T00:55:22.080Z,9.4
2023-02-19T00:56:38.387Z,9.4
2023-02-19T00:57:54.683Z,9.4
2023-02-19T00:59:10.974Z,9.3
2023-02-19T01:00:26.271Z,9.3
2023-02-19T01:01:42.581Z,9.3
2023-02-19T01:02:58.876Z,9.2
2023-02-19T01:04:15.174Z,9.2
2023-02-19T01:05:31.452Z,9.1
2023-02-19T01:06:47.752Z,9.1
2023-02-19T01:08:04.046Z,9
2023-02-19T01:09:20.339Z,9
2023-02-19T01:10:36.639Z,9
2023-02-19T01:11:52.914Z,9
2023-02-19T01:13:09.209Z,9
2023-02-19T01:14:25.503Z,8.9
2023-02-19T01:15:41.808Z,8.9
2023-02-19T01:16:57.124Z,8.9
2023-02-19T01:18:13.418Z,8.9
2023-02-19T01:19:29.695Z,8.9
2023-02-19T01:20:46.001Z,8.8
2023-02-19T01:22:02.303Z,8.9
2023-02-19T01:23:18.582Z,8.8
2023-02-19T01:24:34.876Z,8.9
2023-02-19T01:25:51.170Z,8.8
2023-02-19T01:27:07.469Z,8.8
2023-02-19T01:28:23.767Z,8.8
2023-02-19T01:29:40.046Z,8.8
2023-02-19T01:30:56.341Z,8.8
2023-02-19T01:32:12.657Z,8.7
2023-02-19T01:33:27.951Z,8.7
2023-02-19T01:34:44.260Z,8.7
2023-02-19T01:36:00.535Z,8.7
2023-02-19T01:37:16.826Z,8.7
2023-02-19T01:38:33.126Z,8.7
2023-02-19T01:39:49.411Z,8.7
2023-02-19T01:41:05.718Z,8.7
2023-02-19T01:42:22.013Z,8.7
2023-02-19T01:43:38.305Z,8.7
2023-02-19T01:44:54.604Z,8.7
2023-02-19T01:46:10.883Z,8.7
2023-02-19T01:47:27.179Z,8.7
2023-02-19T01:48:43.495Z,8.7
2023-02-19T01:49:58.783Z,8.7
2023-02-19T01:51:15.082Z,8.7
2023-02-19T01:52:31.385Z,8.7
2023-02-19T01:53:47.660Z,8.7
2023-02-19T01:55:03.966Z,8.6
2023-02-19T01:56:20.253Z,8.6
2023-02-19T01:57:36.560Z,8.6
2023-02-19T01:58:52.847Z,8.6
2023-02-19T02:00:09.142Z,8.6
2023-02-19T02:01:25.443Z,8.6
2023-02-19T02:02:41.737Z,8.6
2023-02-19T02:03:58.024Z,8.6
2023-02-19T02:05:14.322Z,8.6
2023-02-19T02:06:29.621Z,8.6
2023-02-19T02:07:45.924Z,8.6
2023-02-19T02:09:02.219Z,8.6
2023-02-19T02:10:18.507Z,8.6
2023-02-19T02:11:34.800Z,8.5
2023-02-19T02:12:51.092Z,8.5
2023-02-19T02:14:07.388Z,8.5
2023-02-19T02:15:23.690Z,8.5
2023-02-19T02:16:39.968Z,8.5
2023-02-19T02:17:56.263Z,8.5
2023-02-19T02:19:12.579Z,8.5
2023-02-19T02:20:28.852Z,8.5
2023-02-19T02:21:45.145Z,8.5
2023-02-19T02:23:00.473Z,8.5
2023-02-19T02:24:16.751Z,8.4
2023-02-19T02:25:33.041Z,8.4
2023-02-19T02:26:49.350Z,8.4
2023-02-19T02:28:05.641Z,8.4
2023-02-19T02:29:21.935Z,8.5
2023-02-19T02:30:38.222Z,8.4
2023-02-19T02:31:54.520Z,8.4
2023-02-19T02:33:10.808Z,8.4
2023-02-19T02:34:27.110Z,8.4
2023-02-19T02:35:43.000Z,8.4
2023-02-19T02:36:59.694Z,8.4
2023-02-19T02:38:16.008Z,8.4
2023-02-19T02:39:31.303Z,8.4
2023-02-19T02:40:47.603Z,8.4
2023-02-19T02:42:03.893Z,8.4
2023-02-19T02:43:20.186Z,8.4
2023-02-19T02:44:36.479Z,8.3
2023-02-19T02:45:52.791Z,8.4
2023-02-19T02:47:09.054Z,8.4
2023-02-19T02:48:25.358Z,8.3
2023-02-19T02:49:41.640Z,8.4
2023-02-19T02:50:57.935Z,8.4
2023-02-19T02:52:14.229Z,8.4
2023-02-19T02:53:30.531Z,8.4
2023-02-19T02:54:46.836Z,8.4
2023-02-19T02:56:02.136Z,8.4
2023-02-19T02:57:18.422Z,8.4
2023-02-19T02:58:34.725Z,8.4
2023-02-19T02:59:51.020Z,8.4
2023-02-19T03:01:07.320Z,8.4
2023-02-19T03:02:23.612Z,8.4
2023-02-19T03:03:39.900Z,8.4
2023-02-19T03:04:56.197Z,8.4
2023-02-19T03:06:12.506Z,8.4
2023-02-19T03:07:28.777Z,8.4
2023-02-19T03:08:45.075Z,8.4
2023-02-19T03:10:01.360Z,8.4
2023-02-19T03:11:17.671Z,8.4
2023-02-19T03:12:32.982Z,8.4
2023-02-19T03:13:49.266Z,8.4
2023-02-19T03:15:05.563Z,8.4
2023-02-19T03:16:21.867Z,8.5
2023-02-19T03:17:38.158Z,8.5
2023-02-19T03:18:54.443Z,8.5
2023-02-19T03:20:10.729Z,8.5
2023-02-19T03:21:27.022Z,8.5
2023-02-19T03:22:43.328Z,8.5
2023-02-19T03:23:59.633Z,8.5
2023-02-19T03:25:15.915Z,8.5
2023-02-19T03:26:32.217Z,8.5
2023-02-19T03:27:48.506Z,8.5
2023-02-19T03:29:03.822Z,8.5
2023-02-19T03:30:20.121Z,8.5
2023-02-19T03:31:36.389Z,8.5
2023-02-19T03:32:52.702Z,8.5
2023-02-19T03:34:08.984Z,8.5
2023-02-19T03:35:25.286Z,8.5
2023-02-19T03:36:41.588Z,8.5
2023-02-19T03:37:57.878Z,8.5
2023-02-19T03:39:14.174Z,8.5
2023-02-19T03:40:30.456Z,8.5
2023-02-19T03:41:46.754Z,8.5
2023-02-19T03:43:03.055Z,8.5
2023-02-19T03:44:19.351Z,8.5
2023-02-19T03:45:34.656Z,8.6
2023-02-19T03:46:50.934Z,8.6
2023-02-19T03:48:07.230Z,8.6
2023-02-19T03:49:23.540Z,8.6
2023-02-19T03:50:39.836Z,8.6
2023-02-19T03:51:56.131Z,8.6
2023-02-19T03:53:12.405Z,8.6
2023-02-19T03:54:28.723Z,8.6
2023-02-19T03:55:45.017Z,8.6
2023-02-19T03:57:01.303Z,8.6
2023-02-19T03:58:17.580Z,8.6
2023-02-19T03:59:33.900Z,8.7
2023-02-19T04:00:50.182Z,8.6
2023-02-19T04:02:06.599Z,8.6
2023-02-19T04:03:22.895Z,8.7
2023-02-19T04:04:39.196Z,8.7
2023-02-19T04:05:55.482Z,8.7
2023-02-19T04:07:11.762Z,8.7
2023-02-19T04:08:28.058Z,8.7
2023-02-19T04:09:43.389Z,8.7
2023-02-19T04:10:59.670Z,8.7
2023-02-19T04:12:15.965Z,8.7
2023-02-19T04:13:32.262Z,8.7
2023-02-19T04:14:48.566Z,8.7
2023-02-19T04:16:04.841Z,8.7
2023-02-19T04:17:21.150Z,8.7
2023-02-19T04:18:37.446Z,8.7
2023-02-19T04:19:53.741Z,8.7
2023-02-19T04:21:10.020Z,8.7
2023-02-19T04:22:26.315Z,8.7
2023-02-19T04:23:42.609Z,8.7
2023-02-19T04:24:58.909Z,8.7
2023-02-19T04:26:14.211Z,8.7
2023-02-19T04:27:30.512Z,8.7
2023-02-19T04:28:46.808Z,8.7
2023-02-19T04:30:03.094Z,8.8
2023-02-19T04:31:19.390Z,8.7
2023-02-19T04:32:35.697Z,8.8
2023-02-19T04:33:51.994Z,8.7
2023-02-19T04:35:08.278Z,8.8
2023-02-19T04:36:24.567Z,8.8
2023-02-19T04:37:40.879Z,8.7
2023-02-19T04:38:57.160Z,8.7
2023-02-19T04:40:13.448Z,8.8
2023-02-19T04:41:29.759Z,8.7
2023-02-19T04:42:45.066Z,8.7
2023-02-19T04:44:01.349Z,8.7
2023-02-19T04:45:17.642Z,8.7
2023-02-19T04:46:33.937Z,8.7
2023-02-19T04:47:50.243Z,8.7
2023-02-19T04:49:06.535Z,8.7
2023-02-19T04:50:22.829Z,8.8
2023-02-19T04:51:39.121Z,8.7
2023-02-19T04:52:55.403Z,8.7
2023-02-19T04:54:11.697Z,8.7
2023-02-19T04:55:28.001Z,8.7
2023-02-19T04:56:44.292Z,8.7
2023-02-19T04:58:00.607Z,8.7
2023-02-19T04:59:15.903Z,8.7
2023-02-19T05:00:32.198Z,8.7
2023-02-19T05:01:48.496Z,8.7
2023-02-19T05:03:04.803Z,8.7
2023-02-19T05:04:21.074Z,8.6
2023-02-19T05:05:37.373Z,8.6
2023-02-19T05:06:53.682Z,8.6
2023-02-19T05:08:09.962Z,8.6
2023-02-19T05:09:26.260Z,8.7
2023-02-19T05:10:42.546Z,8.6
2023-02-19T05:11:58.843Z,8.7
2023-02-19T05:13:15.146Z,8.6
2023-02-19T05:14:31.440Z,8.6
2023-02-19T05:15:46.728Z,8.6
2023-02-19T05:17:03.035Z,8.6
2023-02-19T05:18:19.337Z,8.6
2023-02-19T05:19:35.624Z,8.6
2023-02-19T05:20:51.927Z,8.6
2023-02-19T05:22:08.198Z,8.6
2023-02-19T05:23:24.495Z,8.6
2023-02-19T05:24:40.795Z,8.6
2023-02-19T05:25:57.086Z,8.6
2023-02-19T05:27:13.385Z,8.6
2023-02-19T05:28:29.666Z,8.6
2023-02-19T05:29:45.992Z,8.6
2023-02-19T05:31:02.283Z,8.6
2023-02-19T05:32:17.569Z,8.6
2023-02-19T05:33:33.868Z,8.6
2023-02-19T05:34:50.152Z,8.6
2023-02-19T05:36:06.452Z,8.6
2023-02-19T05:37:22.755Z,8.6
2023-02-19T05:38:39.052Z,8.6
2023-02-19T05:39:55.342Z,8.6
2023-02-19T05:41:11.640Z,8.7
2023-02-19T05:42:27.000Z,8.6
2023-02-19T05:43:44.228Z,8.6
2023-02-19T05:45:00.517Z,8.6
2023-02-19T05:46:16.821Z,8.6
2023-02-19T05:47:33.102Z,8.6
2023-02-19T05:48:48.412Z,8.7
2023-02-19T05:50:04.710Z,8.6
2023-02-19T05:51:21.003Z,8.7
2023-02-19T05:52:37.304Z,8.7
2023-02-19T05:53:53.583Z,8.7
2023-02-19T05:55:09.815Z,8.7
2023-02-19T05:56:26.115Z,8.7
2023-02-19T05:57:42.380Z,8.7
2023-02-19T05:58:58.626Z,8.7
2023-02-19T06:00:14.921Z,8.7
2023-02-19T06:01:31.168Z,8.7
2023-02-19T06:02:47.395Z,8.7
2023-02-19T06:04:03.658Z,8.7
2023-02-19T06:05:18.902Z,8.7
2023-02-19T06:06:35.171Z,8.7
2023-02-19T06:07:51.411Z,8.8
2023-02-19T06:09:07.653Z,8.7
2023-02-19T06:10:23.883Z,8.8
2023-02-19T06:11:40.120Z,8.8
2023-02-19T06:12:56.348Z,8.8
2023-02-19T06:14:12.596Z,8.8
2023-02-19T06:15:28.844Z,8.8
2023-02-19T06:16:45.076Z,8.8
2023-02-19T06:18:01.309Z,8.8
2023-02-19T06:19:17.561Z,8.8
2023-02-19T06:20:33.803Z,8.8
2023-02-19T06:21:49.055Z,8.8
2023-02-19T06:23:05.293Z,8.8
2023-02-19T06:24:21.520Z,8.8
2023-02-19T06:25:37.000Z,8.8
2023-02-19T06:26:54.003Z,8.8
2023-02-19T06:28:10.254Z,8.7
2023-02-19T06:29:26.490Z,8.8
2023-02-19T06:30:42.737Z,8.8
2023-02-19T06:31:58.961Z,8.8
2023-02-19T06:33:15.210Z,8.8
2023-02-19T06:34:31.443Z,8.8
2023-02-19T06:35:47.696Z,8.9
2023-02-19T06:37:03.937Z,8.9
2023-02-19T06:38:19.201Z,8.9
2023-02-19T06:39:35.443Z,8.8
2023-02-19T06:40:51.672Z,8.8
2023-02-19T06:42:07.897Z,8.8
2023-02-19T06:43:24.156Z,8.8
2023-02-19T06:44:40.393Z,8.8
2023-02-19T06:45:56.632Z,8.9
2023-02-19T06:47:12.858Z,8.8
2023-02-19T06:48:29.115Z,8.8
2023-02-19T06:49:45.355Z,8.9
2023-02-19T06:51:01.597Z,8.9
2023-02-19T06:52:17.832Z,8.7
2023-02-19T06:53:34.089Z,8.4
2023-02-19T06:54:49.320Z,8.2
2023-02-19T06:56:05.568Z,8
2023-02-19T06:57:21.797Z,7.9
2023-02-19T06:58:38.033Z,7.8
2023-02-19T06:59:54.281Z,7.7
2023-02-19T07:01:10.524Z,7.6
2023-02-19T07:02:26.784Z,7.4
2023-02-19T07:03:43.004Z,7.2
2023-02-19T07:04:59.264Z,7
2023-02-19T07:06:15.472Z,6.9
2023-02-19T07:07:31.726Z,6.7
2023-02-19T07:08:47.969Z,6.7
2023-02-19T07:10:04.200Z,6.6
2023-02-19T07:11:19.448Z,6.5
2023-02-19T07:12:35.707Z,6.5
2023-02-19T07:15:08.173Z,6.3
2023-02-19T07:16:24.407Z,6.4
2023-02-19T07:17:40.668Z,6.4
2023-02-19T07:18:56.902Z,6.3
2023-02-19T07:20:13.157Z,6.3
2023-02-19T07:21:29.385Z,6.3
2023-02-19T07:22:45.608Z,6.2
2023-02-19T07:24:01.865Z,6.1
2023-02-19T07:25:18.089Z,6.1
2023-02-19T07:26:34.329Z,6
2023-02-19T07:27:49.613Z,5.9
2023-02-19T07:29:05.832Z,5.8
2023-02-19T07:30:22.070Z,5.8
2023-02-19T07:31:38.329Z,5.7
2023-02-19T07:32:54.565Z,5.7
2023-02-19T07:34:10.807Z,5.7
2023-02-19T07:35:27.021Z,5.6
2023-02-19T07:36:43.277Z,5.6
2023-02-19T07:37:59.502Z,5.5
2023-02-19T07:39:15.756Z,5.5
2023-02-19T07:40:32.001Z,5.5
2023-02-19T07:41:48.233Z,5.4
2023-02-19T07:43:04.459Z,5.4
2023-02-19T07:44:19.718Z,5.4
2023-02-19T07:45:35.969Z,5.4
2023-02-19T07:46:52.212Z,5.3
2023-02-19T07:48:08.463Z,5.3
2023-02-19T07:49:24.685Z,5.3
2023-02-19T07:50:40.937Z,5.3
2023-02-19T07:51:57.153Z,5.3
2023-02-19T07:53:13.415Z,5.3
2023-02-19T07:54:29.651Z,5.3
2023-02-19T07:55:45.882Z,5.2
2023-02-19T07:57:02.116Z,5.2
2023-02-19T07:58:18.365Z,5.2
2023-02-19T07:59:34.610Z,5.2
2023-02-19T08:00:49.851Z,5.2
2023-02-19T08:02:06.093Z,5.2
2023-02-19T08:03:22.350Z,5.2
2023-02-19T08:04:38.577Z,5.2
2023-02-19T08:05:54.826Z,5.2
2023-02-19T08:07:11.054Z,5.2
2023-02-19T08:08:27.292Z,5.2
2023-02-19T08:09:43.551Z,5.2
2023-02-19T08:10:59.796Z,5.1
2023-02-19T08:12:16.010Z,5.1
2023-02-19T08:13:32.263Z,5.1
2023-02-19T08:14:48.506Z,5.1
2023-02-19T08:16:04.747Z,5.1
2023-02-19T08:17:19.982Z,5.1
2023-02-19T08:18:36.238Z,5.1
2023-02-19T08:19:52.463Z,5.2
2023-02-19T08:21:08.712Z,5.2
2023-02-19T08:22:24.951Z,5.2
2023-02-19T08:23:41.198Z,5.2
2023-02-19T08:24:56.474Z,5.2
2023-02-19T08:26:12.710Z,5.1
2023-02-19T08:27:28.939Z,5.1
2023-02-19T08:28:45.171Z,5.1
2023-02-19T08:30:01.407Z,5.1
2023-02-19T08:31:17.661Z,5.1
2023-02-19T08:32:33.882Z,5.1
2023-02-19T08:33:50.153Z,5.1
2023-02-19T08:35:06.366Z,5.1
2023-02-19T08:36:22.623Z,5.1
2023-02-19T08:37:38.840Z,5.1
2023-02-19T08:38:55.081Z,5.2
2023-02-19T08:40:11.330Z,5.1
2023-02-19T08:42:42.815Z,5
2023-02-19T08:43:59.078Z,5
2023-02-19T08:45:15.295Z,4.9
2023-02-19T08:46:31.564Z,4.9
2023-02-19T08:47:47.782Z,4.9
2023-02-19T08:49:04.036Z,4.9
2023-02-19T08:50:20.272Z,4.9
2023-02-19T08:51:36.516Z,4.8
2023-02-19T08:52:52.740Z,4.8
2023-02-19T08:54:08.994Z,4.9
2023-02-19T08:55:25.230Z,4.8
2023-02-19T08:56:41.480Z,4.9
2023-02-19T08:57:56.714Z,4.8
2023-02-19T08:59:12.964Z,4.8
2023-02-19T09:00:29.192Z,4.8
2023-02-19T09:01:45.447Z,4.9
2023-02-19T09:03:01.690Z,5
2023-02-19T09:04:17.922Z,4.9
2023-02-19T09:06:50.404Z,4.9
2023-02-19T09:08:06.650Z,4.9
2023-02-19T09:09:22.871Z,5
2023-02-19T09:10:39.112Z,5
2023-02-19T09:11:55.350Z,4.9
2023-02-19T09:13:11.588Z,4.9
2023-02-19T09:14:26.859Z,5
2023-02-19T09:15:43.099Z,5.1
2023-02-19T09:16:59.324Z,5
2023-02-19T09:18:15.576Z,5
2023-02-19T09:19:31.821Z,5
2023-02-19T09:20:48.053Z,5
2023-02-19T09:22:04.294Z,4.9
2023-02-19T09:23:20.536Z,4.9
2023-02-19T09:24:36.782Z,4.9
2023-02-19T09:25:53.016Z,4.8
2023-02-19T09:27:09.237Z,4.9
2023-02-19T09:28:25.484Z,4.9
2023-02-19T09:29:41.720Z,4.8
2023-02-19T09:30:57.000Z,4.9
2023-02-19T09:32:13.229Z,4.8
2023-02-19T09:33:29.452Z,4.8
2023-02-19T09:34:45.726Z,4.8
2023-02-19T09:36:01.950Z,4.8
2023-02-19T09:37:18.178Z,5
2023-02-19T09:38:34.413Z,5
2023-02-19T09:39:50.677Z,5
2023-02-19T09:41:06.923Z,5.1
2023-02-19T09:42:23.146Z,5
2023-02-19T09:43:39.383Z,5
2023-02-19T09:44:55.616Z,5
2023-02-19T09:46:11.868Z,5
2023-02-19T09:47:27.112Z,5
2023-02-19T09:48:43.365Z,5.1
2023-02-19T09:49:59.592Z,5.1
2023-02-19T09:51:15.834Z,5.2
2023-02-19T09:52:32.082Z,5.1
2023-02-19T09:53:48.311Z,5.1
2023-02-19T09:55:04.548Z,5
2023-02-19T09:56:20.812Z,5
2023-02-19T09:57:37.048Z,5.1
2023-02-19T09:58:53.299Z,5.1
2023-02-19T10:00:09.506Z,5.3
2023-02-19T10:01:25.748Z,5.7
2023-02-19T10:02:42.008Z,5.9
2023-02-19T10:03:57.264Z,6
2023-02-19T10:05:13.482Z,6
2023-02-19T10:06:29.731Z,6.4
2023-02-19T10:07:45.983Z,6.9
2023-02-19T10:09:02.228Z,7.1
2023-02-19T10:10:18.459Z,6.8
2023-02-19T10:11:34.695Z,6.6
2023-02-19T10:12:50.942Z,6.7
2023-02-19T10:14:07.157Z,6.7
2023-02-19T10:15:23.404Z,6.4
2023-02-19T10:16:39.652Z,6.2
2023-02-19T10:17:55.891Z,6
2023-02-19T10:19:12.128Z,6
2023-02-19T10:20:28.495Z,6.1
2023-02-19T10:21:44.720Z,6.1
2023-02-19T10:23:00.988Z,6
2023-02-19T10:24:17.208Z,6
2023-02-19T10:25:33.437Z,6
2023-02-19T10:26:49.677Z,5.9
2023-02-19T10:28:05.959Z,5.8
2023-02-19T10:29:22.172Z,5.8
2023-02-19T10:30:38.421Z,5.8
2023-02-19T10:31:54.652Z,6.1
2023-02-19T10:33:10.886Z,6.2
2023-02-19T10:34:27.146Z,6.3
2023-02-19T10:35:43.364Z,6.3
2023-02-19T10:36:58.618Z,6.2
2023-02-19T10:38:14.856Z,6.2
2023-02-19T10:39:31.094Z,6.3
2023-02-19T10:40:47.354Z,6.1
2023-02-19T10:42:03.599Z,5.9
2023-02-19T10:43:19.833Z,5.7
2023-02-19T10:44:36.076Z,5.7
2023-02-19T10:45:52.293Z,5.6
2023-02-19T10:47:08.528Z,5.6
2023-02-19T10:48:24.773Z,5.6
2023-02-19T10:49:41.033Z,5.6
2023-02-19T10:50:57.247Z,5.6
2023-02-19T10:52:13.509Z,5.6
2023-02-19T10:53:28.767Z,5.6
2023-02-19T10:54:44.982Z,5.7
2023-02-19T10:56:01.249Z,5.7
2023-02-19T10:57:17.496Z,5.7
2023-02-19T10:58:33.723Z,5.7
2023-02-19T10:59:49.955Z,5.7
2023-02-19T11:01:06.180Z,5.7
2023-02-19T11:02:22.430Z,5.6
2023-02-19T11:03:38.677Z,5.5
2023-02-19T11:04:54.903Z,5.6
2023-02-19T11:06:11.149Z,5.7
2023-02-19T11:07:27.392Z,5.7
2023-02-19T11:08:43.626Z,5.6
2023-02-19T11:09:58.891Z,5.5
2023-02-19T11:11:15.124Z,5.6
2023-02-19T11:12:31.356Z,5.5
2023-02-19T11:13:47.591Z,5.4
2023-02-19T11:15:03.847Z,5.5
2023-02-19T11:16:20.068Z,5.4
2023-02-19T11:17:36.318Z,5.4
2023-02-19T11:18:52.563Z,5.5
2023-02-19T11:20:08.801Z,5.5
2023-02-19T11:21:25.053Z,5.6
2023-02-19T11:22:41.296Z,5.6
2023-02-19T11:23:57.507Z,5.9
2023-02-19T11:25:13.755Z,6.3
2023-02-19T11:26:29.026Z,6.5
2023-02-19T11:27:45.265Z,6.5
2023-02-19T11:29:01.492Z,6.4
2023-02-19T11:30:17.747Z,6.2
2023-02-19T11:31:33.966Z,6.2
2023-02-19T11:32:50.211Z,6.2
2023-02-19T11:34:06.458Z,6.1
2023-02-19T11:35:22.685Z,6.1
2023-02-19T11:36:38.920Z,6.1
2023-02-19T11:37:55.190Z,6.1
2023-02-19T11:39:11.401Z,6.2
2023-02-19T11:40:27.655Z,6.3
2023-02-19T11:41:43.893Z,6.3
2023-02-19T11:42:59.137Z,6.2
2023-02-19T11:44:15.380Z,6.2
2023-02-19T11:45:31.641Z,6.3
2023-02-19T11:46:47.870Z,6.2
2023-02-19T11:48:04.114Z,6.2
2023-02-19T11:49:20.356Z,6.2
2023-02-19T11:50:36.601Z,6.1
2023-02-19T11:51:52.834Z,6.2
2023-02-19T11:53:09.076Z,6.2
2023-02-19T11:54:25.296Z,6.2
2023-02-19T11:55:41.561Z,6.2
2023-02-19T11:56:57.780Z,6
2023-02-19T11:58:14.034Z,6
2023-02-19T11:59:29.283Z,6.1
2023-02-19T12:00:45.541Z,6.2
2023-02-19T12:02:01.750Z,6.1
2023-02-19T12:03:18.003Z,6.1
2023-02-19T12:04:34.240Z,6.1
2023-02-19T12:05:50.497Z,6.2
2023-02-19T12:07:06.722Z,6.2
2023-02-19T12:08:22.971Z,6.2
2023-02-19T12:09:39.210Z,6.2
2023-02-19T12:10:55.450Z,6.2
2023-02-19T12:12:11.666Z,6.1
2023-02-19T12:13:27.929Z,6.2
2023-02-19T12:14:44.165Z,6.3
2023-02-19T12:15:59.423Z,6.3
2023-02-19T12:17:15.667Z,6.6
2023-02-19T12:18:31.895Z,7.1
2023-02-19T12:19:48.127Z,7.3
2023-02-19T12:21:04.360Z,7.3
2023-02-19T12:22:20.622Z,7.2
2023-02-19T12:23:36.874Z,7.3
2023-02-19T12:24:53.088Z,7.6
2023-02-19T12:26:09.333Z,7.6
2023-02-19T12:27:25.590Z,7.6
2023-02-19T12:28:41.825Z,7.3
2023-02-19T12:29:58.056Z,7.1
2023-02-19T12:31:14.299Z,7.1
2023-02-19T12:32:29.547Z,7.1
2023-02-19T12:33:45.808Z,7.4
2023-02-19T12:35:02.015Z,7.4
2023-02-19T12:36:18.273Z,7.9
2023-02-19T12:37:34.494Z,7.9
2023-02-19T12:38:50.753Z,7.8
2023-02-19T12:40:06.022Z,7.5
2023-02-19T12:41:22.269Z,7.6
2023-02-19T12:42:38.508Z,7.3
2023-02-19T12:43:54.734Z,7.1
2023-02-19T12:45:10.989Z,7.1
2023-02-19T12:46:27.238Z,7.1
2023-02-19T12:47:43.454Z,6.9
2023-02-19T12:48:59.708Z,6.9
2023-02-19T12:50:15.934Z,7
2023-02-19T12:51:32.189Z,7.8
2023-02-19T12:52:48.415Z,8.4
2023-02-19T12:54:04.670Z,9.1
2023-02-19T12:55:20.909Z,9.5
2023-02-19T12:56:36.170Z,9.8
2023-02-19T12:57:52.393Z,9.8
2023-02-19T12:59:08.640Z,9.5
2023-02-19T13:00:24.895Z,9.8
2023-02-19T13:01:41.131Z,9.8
2023-02-19T13:02:57.368Z,9.6
2023-02-19T13:04:13.627Z,9
2023-02-19T13:05:29.840Z,8.9
2023-02-19T13:06:46.101Z,8.6
2023-02-19T13:08:02.342Z,8.3
2023-02-19T13:09:18.592Z,8.1
2023-02-19T13:10:34.831Z,7.8
2023-02-19T13:11:51.044Z,7.8
2023-02-19T13:13:06.302Z,7.8
2023-02-19T13:14:22.543Z,7.7
2023-02-19T13:15:38.783Z,7.8
2023-02-19T13:16:55.034Z,8
2023-02-19T13:18:11.267Z,8.5
2023-02-19T13:19:27.512Z,8.9
2023-02-19T13:20:43.772Z,9.3
2023-02-19T13:21:59.997Z,9.7
2023-02-19T13:23:16.224Z,9.1
2023-02-19T13:24:32.478Z,9.4
2023-02-19T13:25:48.703Z,9.3
2023-02-19T13:27:04.954Z,9.3
2023-02-19T13:28:21.180Z,9.3
2023-02-19T13:30:52.698Z,9.6
2023-02-19T13:32:08.941Z,9.4
2023-02-19T13:33:25.161Z,9.4
2023-02-19T13:34:41.428Z,9.2
2023-02-19T13:35:57.662Z,8.6
2023-02-19T13:37:13.878Z,8.2
2023-02-19T13:38:30.134Z,7.8
2023-02-19T13:39:46.370Z,7.8
2023-02-19T13:41:02.613Z,8.2
2023-02-19T13:42:18.855Z,8.5
2023-02-19T13:43:35.111Z,8.4
2023-02-19T13:44:51.348Z,8.7
2023-02-19T13:46:06.606Z,8.5
2023-02-19T13:47:22.845Z,8.2
2023-02-19T13:48:39.083Z,8
2023-02-19T13:49:55.328Z,8
2023-02-19T13:51:11.563Z,7.9
2023-02-19T13:52:27.788Z,7.9
2023-02-19T13:53:44.053Z,7.7
2023-02-19T13:55:00.293Z,7.6
2023-02-19T13:56:16.512Z,7.3
2023-02-19T13:57:32.779Z,7.2
2023-02-19T13:58:48.995Z,7.2
2023-02-19T14:00:05.252Z,7.2
2023-02-19T14:01:21.475Z,7.4
2023-02-19T14:02:36.736Z,7.4
2023-02-19T14:03:52.976Z,7.4
2023-02-19T14:05:09.213Z,7.9
2023-02-19T14:06:25.454Z,8.4
2023-02-19T14:07:41.700Z,8.8
2023-02-19T14:08:57.929Z,9
2023-02-19T14:10:14.174Z,9.3
2023-02-19T14:11:30.410Z,9.1
2023-02-19T14:12:46.673Z,8.6
2023-02-19T14:14:02.922Z,8.3
2023-02-19T14:15:19.164Z,8.3
2023-02-19T14:16:35.387Z,8
2023-02-19T14:17:51.631Z,8
2023-02-19T14:19:06.872Z,7.8
2023-02-19T14:20:23.140Z,7.6
2023-02-19T14:21:39.380Z,7.8
2023-02-19T14:22:55.619Z,7.9
2023-02-19T14:24:11.861Z,8.1
2023-02-19T14:25:28.104Z,8.3
2023-02-19T14:26:44.339Z,8.4
2023-02-19T14:28:00.584Z,8.1
2023-02-19T14:29:16.815Z,8.2
2023-02-19T14:30:33.056Z,8
2023-02-19T14:31:49.295Z,7.9
2023-02-19T14:33:05.542Z,8
2023-02-19T14:34:21.769Z,8
2023-02-19T14:35:37.018Z,8
2023-02-19T14:36:53.277Z,8.2
2023-02-19T14:38:09.517Z,8
2023-02-19T14:39:25.763Z,8.4
2023-02-19T14:40:41.995Z,8.8
2023-02-19T14:41:58.234Z,8.7
2023-02-19T14:43:14.484Z,8.9
2023-02-19T14:44:30.709Z,9.2
2023-02-19T14:45:46.954Z,9.1
2023-02-19T14:47:03.187Z,9
2023-02-19T14:48:19.445Z,9
2023-02-19T14:49:35.676Z,9.1
2023-02-19T14:50:51.901Z,9.1
2023-02-19T14:52:07.173Z,9.1
2023-02-19T14:53:23.408Z,8.9
2023-02-19T14:54:39.651Z,8.9
2023-02-19T14:55:55.881Z,8.8
2023-02-19T14:57:12.133Z,9
2023-02-19T14:58:28.362Z,8.9
2023-02-19T14:59:44.612Z,8.6
2023-02-19T15:01:00.849Z,8.5
2023-02-19T15:02:17.075Z,8.4
2023-02-19T15:03:33.321Z,8.4
2023-02-19T15:04:49.567Z,8.3
2023-02-19T15:06:05.815Z,8.4
2023-02-19T15:07:22.042Z,8.6
2023-02-19T15:08:38.414Z,8.6
2023-02-19T15:09:54.642Z,8.7
2023-02-19T15:11:10.892Z,8.7
2023-02-19T15:12:27.134Z,8.7
2023-02-19T15:13:43.370Z,8.7
2023-02-19T15:14:59.612Z,8.7
2023-02-19T15:16:15.853Z,8.6
2023-02-19T15:17:32.092Z,8.5
2023-02-19T15:18:48.343Z,8.2
2023-02-19T15:20:04.573Z,8.3
2023-02-19T15:21:20.827Z,8.1
2023-02-19T15:22:37.050Z,8.1
2023-02-19T15:23:53.315Z,8
2023-02-19T15:25:08.559Z,8.1
2023-02-19T15:26:24.806Z,8.1
2023-02-19T15:27:41.029Z,8.1
2023-02-19T15:28:57.282Z,7.9
2023-02-19T15:30:13.517Z,7.8
2023-02-19T15:31:29.761Z,7.7
2023-02-19T15:32:45.997Z,7.5
2023-02-19T15:34:02.239Z,7.4
2023-02-19T15:35:18.485Z,7.5
2023-02-19T15:36:34.722Z,7.4
2023-02-19T15:37:50.970Z,7.3
2023-02-19T15:39:07.196Z,7.3
2023-02-19T15:40:23.442Z,7.2
2023-02-19T15:41:38.700Z,7
2023-02-19T15:42:54.932Z,6.9
2023-02-19T15:44:11.182Z,6.8
2023-02-19T15:45:27.424Z,6.8
2023-02-19T15:46:43.663Z,6.8
2023-02-19T15:47:59.899Z,6.7
2023-02-19T15:49:16.137Z,6.7
2023-02-19T15:50:32.366Z,6.7
2023-02-19T15:53:04.865Z,6.7
2023-02-19T15:54:21.102Z,6.7
2023-02-19T15:55:37.328Z,6.7
2023-02-19T15:56:53.579Z,6.7
2023-02-19T15:58:08.837Z,6.7
2023-02-19T15:59:25.077Z,6.7
2023-02-19T16:00:41.311Z,6.7
2023-02-19T16:01:57.556Z,6.7
2023-02-19T16:03:13.786Z,6.6
2023-02-19T16:04:30.039Z,6.6
2023-02-19T16:05:46.279Z,6.6
2023-02-19T16:07:02.512Z,6.6
2023-02-19T16:08:18.739Z,6.6
2023-02-19T16:09:34.998Z,6.6
2023-02-19T16:10:51.238Z,6.6
2023-02-19T16:12:07.474Z,6.6
2023-02-19T16:13:23.713Z,6.5
2023-02-19T16:15:55.208Z,6.4
2023-02-19T16:17:11.451Z,6.4
2023-02-19T16:18:27.699Z,6.3
2023-02-19T16:19:43.942Z,6.3
2023-02-19T16:21:00.162Z,6.3
2023-02-19T16:22:16.415Z,6.2
2023-02-19T16:23:32.631Z,6.2
2023-02-19T16:24:48.891Z,6.2
2023-02-19T16:26:05.122Z,6.2
2023-02-19T16:27:21.378Z,6.1
2023-02-19T16:28:37.608Z,6.1
2023-02-19T16:29:53.858Z,6.1
2023-02-19T16:31:09.101Z,6.1
2023-02-19T16:32:25.343Z,6.1
2023-02-19T16:33:41.567Z,6.1
2023-02-19T16:34:57.830Z,6
2023-02-19T16:36:14.048Z,6
2023-02-19T16:37:30.296Z,5.9
2023-02-19T16:38:46.524Z,5.9
2023-02-19T16:40:02.777Z,5.8
2023-02-19T16:41:19.006Z,5.8
2023-02-19T16:42:35.268Z,5.8
2023-02-19T16:43:51.485Z,5.8
2023-02-19T16:46:23.981Z,5.8
2023-02-19T16:47:39.239Z,5.8
2023-02-19T16:48:55.477Z,5.8
2023-02-19T16:50:11.708Z,5.8
2023-02-19T16:51:27.965Z,5.7
2023-02-19T16:52:44.198Z,5.7
2023-02-19T16:54:00.431Z,5.7
2023-02-19T16:55:15.681Z,5.6
2023-02-19T16:56:31.944Z,5.6
2023-02-19T16:57:48.181Z,5.6
2023-02-19T16:59:04.412Z,5.6
2023-02-19T17:00:20.655Z,5.6
2023-02-19T17:01:36.893Z,5.6
2023-02-19T17:02:53.126Z,5.5
2023-02-19T17:04:09.424Z,5.5
2023-02-19T17:05:25.000Z,5.5
2023-02-19T17:06:42.003Z,5.5
2023-02-19T17:07:58.323Z,5.4
2023-02-19T17:09:14.616Z,5.4
2023-02-19T17:10:30.889Z,5.4
2023-02-19T17:11:46.193Z,5.4
2023-02-19T17:13:02.495Z,5.4
2023-02-19T17:14:18.783Z,5.3
2023-02-19T17:15:35.085Z,5.4
2023-02-19T17:16:51.385Z,5.4
2023-02-19T17:18:07.684Z,5.3
2023-02-19T17:19:23.968Z,5.3
2023-02-19T17:20:40.264Z,5.3
2023-02-19T17:21:56.551Z,5.3
2023-02-19T17:23:12.850Z,5.3
2023-02-19T17:24:29.130Z,5.3
2023-02-19T17:25:45.422Z,5.3
2023-02-19T17:27:01.718Z,5.3
2023-02-19T17:28:17.044Z,5.2
2023-02-19T17:29:33.319Z,5.2
2023-02-19T17:30:49.636Z,5.2
2023-02-19T17:32:05.925Z,5.1
2023-02-19T17:33:22.214Z,5.1
2023-02-19T17:34:38.498Z,5.1
2023-02-19T17:35:54.795Z,5
2023-02-19T17:37:11.089Z,5
2023-02-19T17:38:27.391Z,5
2023-02-19T17:39:43.682Z,5
2023-02-19T17:40:59.978Z,5
2023-02-19T17:42:16.260Z,5
2023-02-19T17:43:32.558Z,5